»·PEaware :: N569FL KAVX-KSAN

N569FL :: KAVX-KSAN

FLIGHT INFORMATION

Flight Status: Arrived
Operator: Privately registered:
United States
More flights under this callsign
Pilot: John M. (9732)
Aircraft: PIPER PA-28 CHEROKEE ARCHER
(P28A)
More flights by this aircraft type
Origin: KAVX Catalina
United States
Destination: KSAN San Diego Intl-Lindbergh
United States
More flights between these airports :: More routes between these airports
Route: +SXC V208 OCN V23 MZB
File this flight plan on PilotEdge
Remarks: I-8 rating
Altitude:
(Current/Filed)
5,000ft
Speed:
(Current/Filed)
140kts
Departed: 17-Dec-17 07:44 PM
Arrived: 17-Dec-17 08:49 PM
Distance/Time
Traveled:
74nm/1:05
Distance/Time
To Go:
Arrived

Flight Plot

Page will automatically refresh every two minutes.


Map Options




Map Legend


Flown Route
Filed Route
Departure Airport
Arrival Airport
Navaid (VOR, NDB)
Fix

Horizontal Profiles

Position Reports

Time Latitude Longitude Heading Altitude Ground
Speed
17-Dec-17 19:08 33.402550 -118.414921 143 1605ft 0kts
17-Dec-17 19:09 33.402550 -118.414921 143 1605ft 0kts
17-Dec-17 19:10 33.402550 -118.414921 143 1605ft 0kts
17-Dec-17 19:11 33.402550 -118.414921 143 1605ft 0kts
17-Dec-17 19:12 33.402550 -118.414921 143 1605ft 0kts
17-Dec-17 19:13 33.402550 -118.414921 143 1605ft 0kts
17-Dec-17 19:14 33.402550 -118.414921 143 1605ft 0kts
17-Dec-17 19:15 33.402550 -118.414921 143 1605ft 0kts
17-Dec-17 19:16 33.402550 -118.414921 143 1605ft 0kts
17-Dec-17 19:17 33.402550 -118.414921 143 1605ft 0kts
17-Dec-17 19:18 33.402550 -118.414921 143 1605ft 0kts
17-Dec-17 19:19 33.402550 -118.414921 143 1605ft 0kts
17-Dec-17 19:20 33.402550 -118.414921 143 1605ft 0kts
17-Dec-17 19:21 33.402550 -118.414921 143 1605ft 0kts
17-Dec-17 19:22 33.402550 -118.414921 143 1605ft 0kts
17-Dec-17 19:23 33.402550 -118.414921 143 1605ft 0kts
17-Dec-17 19:24 33.402550 -118.414921 143 1605ft 0kts
17-Dec-17 19:25 33.402550 -118.414921 143 1605ft 0kts
17-Dec-17 19:26 33.402550 -118.414921 143 1605ft 0kts
17-Dec-17 19:27 33.402550 -118.414921 143 1605ft 0kts
17-Dec-17 19:28 33.402550 -118.414921 143 1605ft 0kts
17-Dec-17 19:29 33.402549 -118.414920 143 1605ft 0kts
17-Dec-17 19:30 33.402546 -118.414918 143 1605ft 0kts
17-Dec-17 19:31 33.402543 -118.414915 143 1605ft 0kts
17-Dec-17 19:32 33.402539 -118.414912 143 1605ft 0kts
17-Dec-17 19:33 33.402536 -118.414909 143 1605ft 0kts
17-Dec-17 19:34 33.402533 -118.414907 143 1605ft 0kts
17-Dec-17 19:35 33.402530 -118.414904 143 1605ft 0kts
17-Dec-17 19:36 33.402527 -118.414901 143 1605ft 0kts
17-Dec-17 19:37 33.402523 -118.414898 143 1605ft 0kts
17-Dec-17 19:38 33.402508 -118.414885 143 1605ft 1kts
17-Dec-17 19:39 33.402685 -118.415382 358 1605ft 3kts
17-Dec-17 19:40 33.403390 -118.415981 63 1605ft 4kts
17-Dec-17 19:41 33.403969 -118.414988 37 1605ft 0kts
17-Dec-17 19:42 33.404793 -118.415052 289 1605ft 4kts
17-Dec-17 19:43 33.404262 -118.416303 233 1605ft 4kts
17-Dec-17 19:44 33.403065 -118.418344 236 1605ft 8kts
17-Dec-17 19:45 33.402364 -118.419529 231 1605ft 5kts
17-Dec-17 19:46 33.402157 -118.419908 271 1605ft 0kts
17-Dec-17 19:47 33.402157 -118.419916 271 1605ft 0kts
17-Dec-17 19:48 33.402157 -118.419923 271 1605ft 0kts
17-Dec-17 19:49 33.402157 -118.419930 271 1605ft 0kts
17-Dec-17 19:50 33.406940 -118.412939 49 1718ft 74kts
17-Dec-17 19:51 33.418454 -118.391195 75 2542ft 84kts
17-Dec-17 19:52 33.413779 -118.361844 102 3271ft 92kts
17-Dec-17 19:53 33.413659 -118.331078 97 3885ft 101kts
17-Dec-17 19:54 33.411066 -118.299775 95 4615ft 95kts
17-Dec-17 19:55 33.405661 -118.266302 104 4946ft 117kts
17-Dec-17 19:56 33.394920 -118.230871 101 5120ft 110kts
17-Dec-17 19:57 33.388171 -118.194321 101 5061ft 110kts
17-Dec-17 19:58 33.381380 -118.158170 101 5054ft 111kts
17-Dec-17 19:59 33.374749 -118.122133 101 5051ft 111kts
17-Dec-17 20:00 33.368057 -118.086030 101 5049ft 111kts
17-Dec-17 20:01 33.361328 -118.050014 101 5046ft 111kts
17-Dec-17 20:02 33.354647 -118.013997 101 5044ft 111kts
17-Dec-17 20:03 33.347674 -117.977774 101 5031ft 112kts
17-Dec-17 20:04 33.340319 -117.941718 101 5031ft 111kts
17-Dec-17 20:05 33.332929 -117.905718 101 5030ft 111kts
17-Dec-17 20:06 33.325517 -117.869584 101 5031ft 111kts
17-Dec-17 20:07 33.318119 -117.833601 101 5036ft 111kts
17-Dec-17 20:08 33.310679 -117.797559 101 5036ft 111kts
17-Dec-17 20:09 33.303218 -117.761362 101 5036ft 112kts
17-Dec-17 20:10 33.295741 -117.725246 101 5035ft 112kts
17-Dec-17 20:11 33.288233 -117.688984 101 5034ft 112kts
17-Dec-17 20:12 33.278061 -117.653999 121 5029ft 114kts
17-Dec-17 20:13 33.260243 -117.622719 121 5031ft 114kts
17-Dec-17 20:14 33.242200 -117.591466 121 5031ft 114kts
17-Dec-17 20:15 33.224104 -117.560437 121 5031ft 114kts
17-Dec-17 20:16 33.206057 -117.529323 121 5031ft 114kts
17-Dec-17 20:17 33.187769 -117.498340 121 5041ft 114kts
17-Dec-17 20:18 33.169469 -117.467426 121 5041ft 114kts
17-Dec-17 20:19 33.151108 -117.436314 121 5037ft 114kts
17-Dec-17 20:20 33.132585 -117.405453 121 5036ft 114kts
17-Dec-17 20:21 33.111984 -117.376388 130 5040ft 115kts
17-Dec-17 20:22 33.083300 -117.358446 156 5041ft 119kts
17-Dec-17 20:23 33.052206 -117.344960 156 5041ft 119kts
17-Dec-17 20:24 33.021014 -117.331580 156 5041ft 119kts
17-Dec-17 20:25 32.995646 -117.311080 101 5034ft 110kts
17-Dec-17 20:26 32.987507 -117.277045 101 5045ft 111kts
17-Dec-17 20:27 32.978775 -117.241260 101 5052ft 113kts
17-Dec-17 20:28 32.970141 -117.203901 101 5188ft 118kts
17-Dec-17 20:29 32.961348 -117.167150 101 5167ft 114kts
17-Dec-17 20:30 32.952758 -117.130832 101 5108ft 114kts
17-Dec-17 20:31 32.943941 -117.093547 101 5077ft 117kts
17-Dec-17 20:32 32.935118 -117.057256 101 5047ft 112kts
17-Dec-17 20:33 32.926064 -117.020055 101 5068ft 123kts
17-Dec-17 20:34 32.916588 -116.980798 101 5055ft 121kts
17-Dec-17 20:35 32.907799 -116.944750 101 5029ft 111kts
17-Dec-17 20:36 32.898632 -116.908272 101 5044ft 117kts
17-Dec-17 20:37 32.889503 -116.872011 101 5036ft 112kts
17-Dec-17 20:38 32.879968 -116.833865 101 5070ft 125kts
17-Dec-17 20:39 32.867284 -116.798490 146 4982ft 124kts
17-Dec-17 20:40 32.834021 -116.808339 201 4987ft 125kts
17-Dec-17 20:41 32.801518 -116.824400 200 5035ft 128kts
17-Dec-17 20:42 32.767276 -116.840580 191 4845ft 133kts
17-Dec-17 20:43 32.732918 -116.850502 190 4328ft 123kts
17-Dec-17 20:44 32.701908 -116.859820 191 4580ft 114kts
17-Dec-17 20:45 32.676778 -116.878589 261 5041ft 116kts
17-Dec-17 20:46 32.673749 -116.915449 266 4086ft 108kts
17-Dec-17 20:47 32.672893 -116.948561 285 4006ft 98kts
17-Dec-17 20:48 32.679975 -116.980597 294 3583ft 103kts
17-Dec-17 20:49 32.689879 -117.013493 294 3052ft 107kts
17-Dec-17 20:50 32.699991 -117.046428 290 2693ft 101kts
17-Dec-17 20:51 32.706238 -117.079169 284 1987ft 100kts
17-Dec-17 20:52 32.713997 -117.111660 289 1700ft 105kts
17-Dec-17 20:53 32.721754 -117.141362 284 994ft 83kts
17-Dec-17 20:54 32.727788 -117.166233 285 369ft 74kts
17-Dec-17 20:55 32.732920 -117.187102 283 18ft 33kts
17-Dec-17 20:56 32.733736 -117.188175 21 18ft 0kts
17-Dec-17 20:57 32.734050 -117.187990 37 18ft 5kts
17-Dec-17 20:58 32.733648 -117.185327 107 18ft 9kts
17-Dec-17 20:59 32.732911 -117.182281 105 18ft 9kts
17-Dec-17 21:00 32.732918 -117.179673 40 18ft 6kts
17-Dec-17 21:01 32.732657 -117.177900 106 18ft 0kts
17-Dec-17 21:02 32.732657 -117.177899 106 18ft 0kts
17-Dec-17 21:03 32.732657 -117.177899 106 18ft 0kts
17-Dec-17 21:04 32.732657 -117.177899 106 18ft 0kts

Navigation Log

Ident Type
1. KAVX Airport
2. SXC Navaid
3. AVOLS Fix
4. PACIF Fix
5. HUBRD Fix
6. OCN Navaid
7. HURSI Fix
8. CARIF Fix
9. MZB Navaid
10. KSAN Airport